createdAt,value
2023-05-21T00:00:19.330Z,14.09
2023-05-21T00:02:31.426Z,14.07
2023-05-21T00:04:43.460Z,13.99
2023-05-21T00:06:55.562Z,13.96
2023-05-21T00:09:08.616Z,13.89
2023-05-21T00:11:20.696Z,13.92
2023-05-21T00:13:32.763Z,13.81
2023-05-21T00:15:45.827Z,13.79
2023-05-21T00:17:57.970Z,13.69
2023-05-21T00:20:10.029Z,13.58
2023-05-21T00:22:23.589Z,13.52
2023-05-21T00:24:35.629Z,13.61
2023-05-21T00:26:47.733Z,13.65
2023-05-21T00:29:01.346Z,13.62
2023-05-21T00:31:13.458Z,13.59
2023-05-21T00:33:26.625Z,13.62
2023-05-21T00:35:40.090Z,13.61
2023-05-21T00:37:52.181Z,13.52
2023-05-21T00:40:05.245Z,13.44
2023-05-21T00:42:18.838Z,13.38
2023-05-21T00:44:30.929Z,13.30
2023-05-21T00:46:42.988Z,13.27
2023-05-21T00:48:56.601Z,13.33
2023-05-21T00:51:08.648Z,13.36
2023-05-21T00:53:20.746Z,13.33
2023-05-21T00:55:32.889Z,13.27
2023-05-21T00:57:44.921Z,13.24
2023-05-21T00:59:58.504Z,13.20
2023-05-21T01:02:10.595Z,13.11
2023-05-21T01:04:22.666Z,13.14
2023-05-21T01:06:34.864Z,13.04
2023-05-21T01:08:46.860Z,13.04
2023-05-21T01:10:58.977Z,12.93
2023-05-21T01:13:11.993Z,12.92
2023-05-21T01:15:24.089Z,12.87
2023-05-21T01:17:36.203Z,12.77
2023-05-21T01:19:49.355Z,12.63
2023-05-21T01:22:01.339Z,12.59
2023-05-21T01:24:14.889Z,12.56
2023-05-21T01:26:28.492Z,12.44
2023-05-21T01:28:40.624Z,12.33
2023-05-21T01:30:54.144Z,12.24
2023-05-21T01:33:06.296Z,12.19
2023-05-21T01:35:18.333Z,12.06
2023-05-21T01:37:30.397Z,12.02
2023-05-21T01:39:42.500Z,12.02
2023-05-21T01:41:54.576Z,12.01
2023-05-21T01:44:08.145Z,11.96
2023-05-21T01:46:20.291Z,11.94
2023-05-21T01:48:33.815Z,11.89
2023-05-21T01:50:45.931Z,11.90
2023-05-21T01:52:57.983Z,11.83
2023-05-21T01:55:10.077Z,11.77
2023-05-21T01:57:22.137Z,11.68
2023-05-21T01:59:34.208Z,11.65
2023-05-21T02:01:46.367Z,11.62
2023-05-21T02:03:58.515Z,11.62
2023-05-21T02:06:10.457Z,11.57
2023-05-21T02:08:24.550Z,11.52
2023-05-21T02:10:36.622Z,11.47
2023-05-21T02:12:50.234Z,11.59
2023-05-21T02:15:02.283Z,11.65
2023-05-21T02:17:15.356Z,11.67
2023-05-21T02:19:28.976Z,11.72
2023-05-21T02:21:41.037Z,11.74
2023-05-21T02:23:53.158Z,11.72
2023-05-21T02:26:05.199Z,11.67
2023-05-21T02:28:18.775Z,11.59
2023-05-21T02:30:30.839Z,11.64
2023-05-21T02:32:44.448Z,11.65
2023-05-21T02:34:56.532Z,11.94
2023-05-21T02:37:09.604Z,11.90
2023-05-21T02:39:22.649Z,11.83
2023-05-21T02:41:36.240Z,11.77
2023-05-21T02:43:48.297Z,11.72
2023-05-21T02:46:00.444Z,11.75
2023-05-21T02:48:12.550Z,11.67
2023-05-21T02:50:24.568Z,11.62
2023-05-21T02:52:36.661Z,11.53
2023-05-21T02:54:48.726Z,11.49
2023-05-21T02:57:02.351Z,11.41
2023-05-21T02:59:14.396Z,11.44
2023-05-21T03:01:26.541Z,11.49
2023-05-21T03:03:40.143Z,11.46
2023-05-21T03:05:53.175Z,11.56
2023-05-21T03:08:05.258Z,11.61
2023-05-21T03:10:17.311Z,11.65
2023-05-21T03:12:29.399Z,11.97
2023-05-21T03:14:41.480Z,12.02
2023-05-21T03:16:55.020Z,12.01
2023-05-21T03:19:07.053Z,12.15
2023-05-21T03:21:19.111Z,12.21
2023-05-21T03:23:31.213Z,12.30
2023-05-21T03:25:44.775Z,12.34
2023-05-21T03:27:56.883Z,12.48
2023-05-21T03:30:08.995Z,12.57
2023-05-21T03:32:21.162Z,12.67
2023-05-21T03:34:33.137Z,12.77
2023-05-21T03:36:45.208Z,12.85
2023-05-21T03:38:57.332Z,12.93
2023-05-21T03:41:10.940Z,12.97
2023-05-21T03:43:22.996Z,13.00
2023-05-21T03:45:35.234Z,13.07
2023-05-21T03:47:48.713Z,13.11
2023-05-21T03:50:00.744Z,13.09
2023-05-21T03:52:12.841Z,13.12
2023-05-21T03:54:24.903Z,13.21
2023-05-21T03:56:36.976Z,13.24
2023-05-21T03:58:49.091Z,13.25
2023-05-21T04:01:01.201Z,13.30
2023-05-21T04:03:13.367Z,13.36
2023-05-21T04:05:26.329Z,13.38
2023-05-21T04:07:38.467Z,13.44
2023-05-21T04:11:07.948Z,13.58
2023-05-21T04:13:20.995Z,13.67
2023-05-21T04:15:33.068Z,13.73
2023-05-21T04:17:45.159Z,13.83
2023-05-21T04:19:57.261Z,13.94
2023-05-21T04:22:10.821Z,14.06
2023-05-21T04:24:22.906Z,14.13
2023-05-21T04:26:34.990Z,14.24
2023-05-21T04:28:50.557Z,14.29
2023-05-21T04:31:02.784Z,14.39
2023-05-21T04:33:14.722Z,14.52
2023-05-21T04:35:26.798Z,14.64
2023-05-21T04:37:39.868Z,14.78
2023-05-21T04:39:51.945Z,14.88
2023-05-21T04:42:04.062Z,15.02
2023-05-21T04:44:16.102Z,15.09
2023-05-21T04:46:29.211Z,15.26
2023-05-21T04:48:41.262Z,15.35
2023-05-21T04:50:54.865Z,15.48
2023-05-21T04:53:06.932Z,15.59
2023-05-21T04:55:19.015Z,15.70
2023-05-21T04:57:31.100Z,15.86
2023-05-21T04:59:44.692Z,16.07
2023-05-21T05:01:56.772Z,16.26
2023-05-21T05:04:09.865Z,16.44
2023-05-21T05:06:21.930Z,16.68
2023-05-21T05:08:33.990Z,16.81
2023-05-21T05:10:47.072Z,16.98
2023-05-21T05:12:59.174Z,17.10
2023-05-21T05:15:11.248Z,17.22
2023-05-21T05:17:23.365Z,17.43
2023-05-21T05:19:35.487Z,17.54
2023-05-21T05:21:47.449Z,17.55
2023-05-21T05:24:01.069Z,17.69
2023-05-21T05:26:14.168Z,17.74
2023-05-21T05:28:26.228Z,17.84
2023-05-21T05:30:38.378Z,17.88
2023-05-21T05:32:51.925Z,18.03
2023-05-21T05:35:03.968Z,18.09
2023-05-21T05:37:16.081Z,18.21
2023-05-21T05:39:28.171Z,18.29
2023-05-21T05:41:40.254Z,18.42
2023-05-21T05:43:52.346Z,18.55
2023-05-21T05:46:05.458Z,18.61
2023-05-21T05:48:17.588Z,18.59
2023-05-21T05:50:29.581Z,18.72
2023-05-21T05:52:41.650Z,18.84
2023-05-21T05:54:53.708Z,18.94
2023-05-21T05:57:05.819Z,19.01
2023-05-21T05:59:17.910Z,19.10
2023-05-21T06:01:29.972Z,18.94
2023-05-21T06:03:42.198Z,18.92
2023-05-21T06:05:54.189Z,18.90
2023-05-21T06:08:06.238Z,18.94
2023-05-21T06:10:18.336Z,18.91
2023-05-21T06:12:30.423Z,18.77
2023-05-21T06:14:45.212Z,18.86
2023-05-21T06:16:56.052Z,18.92
2023-05-21T06:19:08.140Z,18.95
2023-05-21T06:21:20.244Z,19.01
2023-05-21T06:23:33.786Z,18.98
2023-05-21T06:25:45.853Z,19.05
2023-05-21T06:27:57.936Z,19.17
2023-05-21T06:30:10.018Z,19.23
2023-05-21T06:32:22.226Z,19.39
2023-05-21T06:34:34.176Z,19.43
2023-05-21T06:36:46.297Z,19.48
2023-05-21T06:38:58.342Z,19.46
2023-05-21T06:41:10.414Z,19.51
2023-05-21T06:43:22.510Z,19.63
2023-05-21T06:45:35.895Z,19.57
2023-05-21T06:47:47.700Z,19.69
2023-05-21T06:50:03.216Z,19.72
2023-05-21T06:52:15.310Z,19.87
2023-05-21T06:54:27.422Z,20.16
2023-05-21T06:56:39.488Z,20.61
2023-05-21T06:58:51.542Z,20.74
2023-05-21T07:01:04.684Z,20.98
2023-05-21T07:03:16.812Z,21.23
2023-05-21T07:05:28.828Z,21.44
2023-05-21T07:07:45.354Z,21.74
2023-05-21T07:09:57.423Z,21.91
2023-05-21T07:12:22.672Z,21.92
2023-05-21T07:14:24.164Z,22.35
2023-05-21T07:16:37.901Z,22.71
2023-05-21T07:19:14.950Z,22.75
2023-05-21T07:23:36.612Z,22.99
2023-05-21T07:25:51.200Z,23.14
2023-05-21T07:28:07.374Z,23.24
2023-05-21T07:30:20.396Z,23.24
2023-05-21T07:32:36.110Z,23.58
2023-05-21T07:34:51.211Z,23.65
2023-05-21T07:37:06.026Z,23.97
2023-05-21T07:39:19.264Z,23.92
2023-05-21T07:41:32.258Z,24.17
2023-05-21T07:43:45.376Z,23.92
2023-05-21T07:45:58.910Z,23.85
2023-05-21T07:48:12.503Z,23.95
2023-05-21T07:50:26.098Z,23.92
2023-05-21T07:52:39.759Z,23.65
2023-05-21T07:54:52.925Z,23.61
2023-05-21T07:57:06.728Z,23.77
2023-05-21T07:59:20.397Z,24.04
2023-05-21T08:02:50.011Z,24.19
2023-05-21T08:05:03.096Z,24.22
2023-05-21T08:07:19.597Z,24.26
2023-05-21T08:09:34.175Z,24.37
2023-05-21T08:11:50.676Z,24.61
2023-05-21T08:14:02.867Z,24.83
2023-05-21T08:16:15.978Z,25.01
2023-05-21T08:18:29.548Z,24.98
2023-05-21T08:20:43.167Z,24.85
2023-05-21T08:22:58.849Z,25.44
2023-05-21T08:25:12.322Z,25.47
2023-05-21T08:27:24.403Z,25.39
2023-05-21T08:29:38.095Z,25.62
2023-05-21T08:31:51.162Z,25.53
2023-05-21T08:34:04.234Z,25.27
2023-05-21T08:36:17.782Z,25.28
2023-05-21T08:38:31.377Z,25.50
2023-05-21T08:40:43.450Z,25.98
2023-05-21T08:42:55.520Z,26.18
2023-05-21T08:45:07.675Z,25.69
2023-05-21T08:47:19.713Z,25.61
2023-05-21T08:49:32.062Z,25.72
2023-05-21T08:51:44.155Z,25.98
2023-05-21T08:53:56.219Z,26.01
2023-05-21T08:56:08.322Z,26.17
2023-05-21T08:58:20.379Z,26.32
2023-05-21T09:00:32.468Z,26.54
2023-05-21T09:02:44.641Z,26.72
2023-05-21T09:04:57.619Z,27.21
2023-05-21T09:07:09.752Z,27.35
2023-05-21T09:09:21.805Z,27.26
2023-05-21T09:11:34.870Z,27.04
2023-05-21T09:13:46.942Z,27.16
2023-05-21T09:15:59.030Z,27.42
2023-05-21T09:18:11.148Z,27.57
2023-05-21T09:20:23.168Z,27.35
2023-05-21T09:22:36.768Z,27.66
2023-05-21T09:24:48.870Z,27.59
2023-05-21T09:27:00.934Z,27.70
2023-05-21T09:29:13.080Z,28.04
2023-05-21T09:31:25.141Z,28.25
2023-05-21T09:33:37.181Z,28.62
2023-05-21T09:35:49.282Z,29.34
2023-05-21T09:38:01.374Z,29.38
2023-05-21T09:40:13.441Z,29.16
2023-05-21T09:42:25.537Z,29.44
2023-05-21T09:44:37.611Z,29.29
2023-05-21T09:46:51.384Z,29.06
2023-05-21T09:49:03.308Z,28.90
2023-05-21T09:51:15.392Z,29.37
2023-05-21T09:53:27.453Z,29.81
2023-05-21T09:55:39.515Z,29.87
2023-05-21T09:57:51.600Z,29.79
2023-05-21T10:00:03.682Z,30.03
2023-05-21T10:02:15.974Z,30.21
2023-05-21T10:04:27.898Z,29.52
2023-05-21T10:06:39.973Z,29.72
2023-05-21T10:08:52.011Z,30.02
2023-05-21T10:11:04.083Z,30.16
2023-05-21T10:13:16.182Z,30.09
2023-05-21T10:15:28.244Z,30.03
2023-05-21T10:17:40.336Z,29.08
2023-05-21T10:19:53.897Z,29.13
2023-05-21T10:22:05.984Z,29.13
2023-05-21T10:24:18.098Z,29.28
2023-05-21T10:26:30.139Z,29.29
2023-05-21T10:28:42.214Z,28.87
2023-05-21T10:30:54.296Z,28.63
2023-05-21T10:33:06.428Z,28.25
2023-05-21T10:35:18.489Z,28.10
2023-05-21T10:37:31.512Z,28.21
2023-05-21T10:39:43.678Z,28.28
2023-05-21T10:41:58.423Z,28.80
2023-05-21T10:44:09.577Z,29.10
2023-05-21T10:46:21.765Z,29.35
2023-05-21T10:48:33.753Z,29.55
2023-05-21T10:50:45.850Z,29.49
2023-05-21T10:52:57.887Z,29.77
2023-05-21T10:55:10.000Z,29.79
2023-05-21T10:57:23.121Z,30.03
2023-05-21T10:59:35.220Z,30.02
2023-05-21T11:01:47.446Z,30.12
2023-05-21T11:03:59.468Z,29.70
2023-05-21T11:06:11.436Z,30.03
2023-05-21T11:08:25.361Z,30.15
2023-05-21T11:10:38.824Z,29.96
2023-05-21T11:12:50.510Z,30.12
2023-05-21T11:15:04.076Z,29.87
2023-05-21T11:17:16.423Z,29.35
2023-05-21T11:19:31.841Z,29.45
2023-05-21T11:21:41.827Z,29.45
2023-05-21T11:23:53.980Z,29.63
2023-05-21T11:26:05.991Z,29.79
2023-05-21T11:28:18.056Z,30.29
2023-05-21T11:30:30.167Z,30.30
2023-05-21T11:32:42.288Z,30.40
2023-05-21T11:34:54.292Z,30.15
2023-05-21T11:37:06.398Z,30.05
2023-05-21T11:39:18.478Z,30.18
2023-05-21T11:41:30.569Z,29.99
2023-05-21T11:43:42.620Z,30.16
2023-05-21T11:45:54.698Z,29.65
2023-05-21T11:48:10.398Z,29.49
2023-05-21T11:50:26.579Z,29.25
2023-05-21T11:52:41.527Z,29.33
2023-05-21T11:54:53.663Z,29.82
2023-05-21T11:57:09.226Z,30.45
2023-05-21T11:59:22.292Z,30.71
2023-05-21T12:01:35.377Z,30.64
2023-05-21T12:03:49.538Z,30.53
2023-05-21T12:06:05.180Z,30.57
2023-05-21T12:08:16.725Z,30.64
2023-05-21T12:10:31.346Z,30.52
2023-05-21T12:12:54.103Z,30.09
2023-05-21T12:13:43.969Z,30.21
2023-05-21T12:15:59.607Z,30.50
2023-05-21T12:18:16.062Z,30.86
2023-05-21T12:20:30.249Z,30.89
2023-05-21T12:22:43.277Z,30.76
2023-05-21T12:24:56.333Z,30.67
2023-05-21T12:27:11.921Z,30.75
2023-05-21T12:29:27.493Z,30.84
2023-05-21T12:31:54.383Z,30.52
2023-05-21T12:33:56.680Z,30.49
2023-05-21T12:36:10.805Z,29.74
2023-05-21T12:38:24.379Z,29.75
2023-05-21T12:40:37.943Z,30.03
2023-05-21T12:42:53.034Z,30.09
2023-05-21T12:45:06.605Z,30.14
2023-05-21T12:47:22.230Z,30.19
2023-05-21T12:49:37.765Z,30.12
2023-05-21T12:51:51.423Z,29.81
2023-05-21T12:54:05.062Z,29.77
2023-05-21T12:56:18.074Z,29.47
2023-05-21T12:58:31.192Z,29.79
2023-05-21T13:00:43.211Z,29.90
2023-05-21T13:02:55.296Z,29.87
2023-05-21T13:05:07.406Z,29.81
2023-05-21T13:07:21.045Z,29.59
2023-05-21T13:09:34.576Z,29.38
2023-05-21T13:11:46.630Z,29.71
2023-05-21T13:13:58.718Z,29.93
2023-05-21T13:16:10.810Z,30.12
2023-05-21T13:18:23.912Z,30.21
2023-05-21T13:20:36.134Z,30.02
2023-05-21T13:22:49.007Z,29.90
2023-05-21T13:25:01.122Z,29.79
2023-05-21T13:27:13.186Z,29.60
2023-05-21T13:29:25.265Z,29.22
2023-05-21T13:31:37.325Z,29.18
2023-05-21T13:33:49.425Z,29.37
2023-05-21T13:36:01.495Z,29.22
2023-05-21T13:38:13.603Z,29.33
2023-05-21T13:40:25.647Z,29.31
2023-05-21T13:42:37.734Z,29.37
2023-05-21T13:44:49.882Z,29.45
2023-05-21T13:47:02.051Z,29.41
2023-05-21T13:49:14.060Z,29.72
2023-05-21T13:51:38.658Z,29.77
2023-05-21T13:53:39.825Z,29.94
2023-05-21T13:55:51.788Z,29.77
2023-05-21T13:58:05.384Z,29.77
2023-05-21T14:00:17.498Z,29.77
2023-05-21T14:02:30.626Z,29.63
2023-05-21T14:04:43.624Z,29.62
2023-05-21T14:06:56.761Z,29.49
2023-05-21T14:09:08.826Z,29.44
2023-05-21T14:11:21.966Z,29.08
2023-05-21T14:13:34.935Z,29.16
2023-05-21T14:15:46.162Z,29.29
2023-05-21T14:17:58.214Z,29.44
2023-05-21T14:20:11.318Z,29.53
2023-05-21T14:22:24.915Z,29.28
2023-05-21T14:24:38.486Z,29.20
2023-05-21T14:26:52.089Z,29.19
2023-05-21T14:29:04.177Z,29.00
2023-05-21T14:31:16.243Z,28.90
2023-05-21T14:33:29.268Z,28.75
2023-05-21T14:35:41.315Z,28.51
2023-05-21T14:37:54.896Z,28.43
2023-05-21T14:40:06.969Z,28.40
2023-05-21T14:42:20.554Z,28.19
2023-05-21T14:44:32.822Z,28.13
2023-05-21T14:46:45.309Z,28.13
2023-05-21T14:48:56.794Z,28.09
2023-05-21T14:51:09.867Z,27.92
2023-05-21T14:53:22.958Z,27.88
2023-05-21T14:55:36.937Z,27.76
2023-05-21T14:57:47.110Z,27.73
2023-05-21T15:00:00.198Z,27.69
2023-05-21T15:02:12.612Z,27.67
2023-05-21T15:04:24.323Z,27.64
2023-05-21T15:06:36.443Z,27.77
2023-05-21T15:08:48.480Z,27.82
2023-05-21T15:11:00.608Z,27.80
2023-05-21T15:13:12.669Z,27.86
2023-05-21T15:15:24.759Z,27.86
2023-05-21T15:17:37.971Z,27.96
2023-05-21T15:19:49.920Z,28.07
2023-05-21T15:22:01.996Z,28.03
2023-05-21T15:24:14.063Z,28.16
2023-05-21T15:26:26.147Z,28.23
2023-05-21T15:28:38.265Z,28.21
2023-05-21T15:30:51.809Z,28.26
2023-05-21T15:33:03.889Z,28.21
2023-05-21T15:35:16.072Z,28.01
2023-05-21T15:37:29.671Z,28.14
2023-05-21T15:39:42.683Z,28.33
2023-05-21T15:41:55.725Z,28.59
2023-05-21T15:44:08.811Z,28.82
2023-05-21T15:46:21.911Z,29.08
2023-05-21T15:48:35.445Z,29.56
2023-05-21T15:50:47.567Z,28.97
2023-05-21T15:52:59.638Z,28.82
2023-05-21T15:55:13.217Z,28.84
2023-05-21T15:57:25.376Z,29.13
2023-05-21T15:59:37.447Z,29.11
2023-05-21T16:01:50.773Z,28.82
2023-05-21T16:04:01.931Z,29.16
2023-05-21T16:06:14.001Z,29.44
2023-05-21T16:08:26.080Z,29.62
2023-05-21T16:10:38.156Z,29.87
2023-05-21T16:12:50.256Z,29.82
2023-05-21T16:15:03.822Z,29.31
2023-05-21T16:17:15.976Z,28.95
2023-05-21T16:19:28.110Z,28.88
2023-05-21T16:21:40.101Z,28.72
2023-05-21T16:23:52.212Z,28.59
2023-05-21T16:26:04.775Z,28.73
2023-05-21T16:28:16.343Z,28.65
2023-05-21T16:30:29.909Z,29.03
2023-05-21T16:32:42.028Z,29.37
2023-05-21T16:34:54.128Z,29.71
2023-05-21T16:37:06.137Z,29.87
2023-05-21T16:39:19.823Z,29.41
2023-05-21T16:41:31.333Z,29.15
2023-05-21T16:43:44.332Z,28.73
2023-05-21T16:45:55.626Z,28.38
2023-05-21T16:48:07.695Z,27.84
2023-05-21T16:50:21.256Z,27.35
2023-05-21T16:52:33.318Z,27.19
2023-05-21T16:54:45.871Z,27.28
2023-05-21T16:56:57.531Z,27.21
2023-05-21T16:59:09.610Z,27.09
2023-05-21T17:01:21.997Z,26.99
2023-05-21T17:03:34.234Z,26.87
2023-05-21T17:05:46.137Z,26.62
2023-05-21T17:07:58.250Z,26.43
2023-05-21T17:10:10.306Z,26.40
2023-05-21T17:12:22.870Z,26.29
2023-05-21T17:14:36.242Z,26.21
2023-05-21T17:16:46.841Z,26.15
2023-05-21T17:18:58.966Z,26.11
2023-05-21T17:21:11.002Z,26.04
2023-05-21T17:23:23.159Z,25.94
2023-05-21T17:24:23.094Z,25.91
2023-05-21T17:26:36.645Z,25.90
2023-05-21T17:28:48.731Z,25.84
2023-05-21T17:31:00.821Z,25.82
2023-05-21T17:33:12.930Z,25.82
2023-05-21T17:35:26.484Z,25.71
2023-05-21T17:37:38.557Z,25.64
2023-05-21T17:39:52.189Z,25.59
2023-05-21T17:42:04.200Z,25.52
2023-05-21T17:44:16.286Z,25.49
2023-05-21T17:46:28.435Z,25.42
2023-05-21T17:48:41.950Z,25.38
2023-05-21T17:50:54.026Z,25.30
2023-05-21T17:53:06.114Z,25.24
2023-05-21T17:55:18.190Z,25.16
2023-05-21T17:57:30.303Z,25.13
2023-05-21T17:59:42.346Z,25.01
2023-05-21T18:01:57.976Z,24.95
2023-05-21T18:04:12.570Z,24.87
2023-05-21T18:06:28.081Z,24.79
2023-05-21T18:08:46.196Z,24.68
2023-05-21T18:11:04.260Z,24.61
2023-05-21T18:13:22.328Z,24.49
2023-05-21T18:15:37.038Z,24.47
2023-05-21T18:17:51.546Z,24.47
2023-05-21T18:20:03.621Z,24.38
2023-05-21T18:22:16.647Z,24.32
2023-05-21T18:24:30.241Z,24.24
2023-05-21T18:26:43.902Z,24.22
2023-05-21T18:28:56.882Z,24.12
2023-05-21T18:31:09.986Z,23.97
2023-05-21T18:37:39.209Z,23.80
2023-05-21T18:50:55.363Z,23.24
2023-05-21T18:54:47.945Z,23.11
2023-05-21T18:56:41.077Z,23.05
2023-05-21T19:01:32.631Z,22.89
2023-05-21T19:03:50.634Z,22.80
2023-05-21T19:16:57.892Z,22.59
2023-05-21T19:18:40.662Z,22.50
2023-05-21T19:20:52.471Z,22.38
2023-05-21T19:23:08.095Z,22.27
2023-05-21T19:25:21.150Z,22.27
2023-05-21T19:27:39.269Z,22.17
2023-05-21T19:29:54.894Z,22.09
2023-05-21T19:32:10.389Z,22.06
2023-05-21T19:34:44.996Z,21.99
2023-05-21T19:36:53.075Z,21.97
2023-05-21T19:38:58.605Z,21.91
2023-05-21T19:41:12.156Z,21.83
2023-05-21T19:43:24.280Z,21.76
2023-05-21T19:45:37.837Z,21.69
2023-05-21T19:47:51.447Z,21.56
2023-05-21T19:50:03.541Z,21.44
2023-05-21T19:52:15.606Z,21.39
2023-05-21T19:54:57.759Z,21.50
2023-05-21T19:59:27.637Z,21.38
2023-05-21T20:01:45.713Z,21.30
2023-05-21T20:03:57.771Z,21.24
2023-05-21T20:06:12.353Z,21.20
2023-05-21T20:08:27.937Z,21.20
2023-05-21T20:10:43.512Z,21.14
2023-05-21T20:12:59.104Z,21.23
2023-05-21T20:15:14.691Z,21.23
2023-05-21T20:17:30.383Z,21.27
2023-05-21T20:19:43.861Z,21.23
2023-05-21T20:21:56.029Z,21.20
2023-05-21T20:24:08.052Z,21.17
2023-05-21T20:26:20.142Z,21.09
2023-05-21T20:28:32.268Z,21.01
2023-05-21T20:30:44.308Z,20.89
2023-05-21T20:32:56.411Z,20.79
2023-05-21T20:35:08.454Z,20.74
2023-05-21T20:37:20.544Z,20.72
2023-05-21T20:39:32.620Z,20.68
2023-05-21T20:41:45.676Z,20.68
2023-05-21T20:43:57.779Z,20.59
2023-05-21T20:46:09.904Z,20.53
2023-05-21T20:48:22.260Z,20.51
2023-05-21T20:50:34.354Z,20.56
2023-05-21T20:52:47.445Z,20.54
2023-05-21T20:54:58.474Z,20.53
2023-05-21T20:57:10.598Z,20.50
2023-05-21T20:59:22.695Z,20.53
2023-05-21T21:01:34.814Z,20.51
2023-05-21T21:03:46.953Z,20.56
2023-05-21T21:05:59.936Z,20.61
2023-05-21T21:08:11.988Z,20.53
2023-05-21T21:10:24.070Z,20.47
2023-05-21T21:12:36.168Z,20.42
2023-05-21T21:14:48.209Z,20.34
2023-05-21T21:17:01.302Z,20.31
2023-05-21T21:19:13.388Z,20.33
2023-05-21T21:21:25.482Z,20.33
2023-05-21T21:23:37.547Z,20.33
2023-05-21T21:25:49.685Z,20.38
2023-05-21T21:28:01.708Z,20.38
2023-05-21T21:30:14.772Z,20.33
2023-05-21T21:32:26.872Z,20.24
2023-05-21T21:34:38.977Z,20.20
2023-05-21T21:36:51.014Z,20.20
2023-05-21T21:39:03.090Z,20.18
2023-05-21T21:41:16.120Z,20.16
2023-05-21T21:43:27.246Z,20.13
2023-05-21T21:45:39.397Z,20.12
2023-05-21T21:47:51.431Z,20.16
2023-05-21T21:50:03.501Z,20.10
2023-05-21T21:52:15.726Z,20.08
2023-05-21T21:54:27.660Z,20.09
2023-05-21T21:56:40.679Z,20.05
2023-05-21T21:58:52.789Z,20.02
2023-05-21T22:01:04.881Z,19.98
2023-05-21T22:03:17.960Z,19.94
2023-05-21T22:05:30.033Z,20.05
2023-05-21T22:07:42.138Z,20.10
2023-05-21T22:09:54.192Z,20.06
2023-05-21T22:12:07.266Z,20.00
2023-05-21T22:14:19.356Z,20.03
2023-05-21T22:16:31.490Z,20.03
2023-05-21T22:18:43.562Z,20.08
2023-05-21T22:20:55.587Z,20.05
2023-05-21T22:23:07.675Z,20.06
2023-05-21T22:25:19.726Z,20.02
2023-05-21T22:27:31.847Z,19.95
2023-05-21T22:29:43.927Z,19.93
2023-05-21T22:31:56.002Z,19.87
2023-05-21T22:34:08.037Z,19.84
2023-05-21T22:36:20.135Z,19.87
2023-05-21T22:38:32.206Z,19.88
2023-05-21T22:40:44.308Z,19.88
2023-05-21T22:42:56.393Z,19.94
2023-05-21T22:45:08.478Z,19.93
2023-05-21T22:47:20.547Z,19.90
2023-05-21T22:49:32.690Z,19.94
2023-05-21T22:51:44.747Z,20.00
2023-05-21T22:53:56.831Z,19.91
2023-05-21T22:56:10.869Z,19.88
2023-05-21T22:58:22.950Z,19.93
2023-05-21T23:00:35.090Z,19.90
2023-05-21T23:02:47.187Z,19.83
2023-05-21T23:04:59.246Z,19.84
2023-05-21T23:07:11.340Z,19.84
2023-05-21T23:09:23.368Z,19.78
2023-05-21T23:11:35.423Z,19.84
2023-05-21T23:13:47.526Z,19.86
2023-05-21T23:15:59.638Z,19.88
2023-05-21T23:18:12.250Z,19.87
2023-05-21T23:20:23.773Z,19.88
2023-05-21T23:22:36.746Z,19.84
2023-05-21T23:24:47.953Z,19.79
2023-05-21T23:27:00.034Z,19.73
2023-05-21T23:29:12.072Z,19.63
2023-05-21T23:31:24.401Z,19.55
2023-05-21T23:33:36.261Z,19.51
2023-05-21T23:35:48.337Z,19.48
2023-05-21T23:38:00.393Z,19.46
2023-05-21T23:40:12.485Z,19.51
2023-05-21T23:42:24.739Z,19.58
2023-05-21T23:44:37.597Z,19.61
2023-05-21T23:46:49.806Z,19.60
2023-05-21T23:49:01.840Z,19.50
2023-05-21T23:51:13.937Z,19.38
2023-05-21T23:53:26.925Z,19.28
2023-05-21T23:55:38.091Z,19.20
2023-05-21T23:57:51.186Z,19.15
